Francis Place, Louisiana
Current Conditions -  °F | °C
As of 6:53 PM on Monday 26 Jan 2015 (Local Time) from KNEW Reporting Station
Clear Clear  
Wind Chill: 54°   Ceiling: Unl
Heat Index: 54°   Visibility: 10mi
Dew Point: 45°   Wind: 8mph
Humidity: 72%   Direction: 280°W
Pressure: 30.11"   Gusts: NA
Location:  29.9486°N, 89.8975°W
Report Text: KNEW 270053Z AUTO 28007KT 10SM CLR 12/07 A3011 RMK AO2 SLP189 T01220072 TSNO
Loading
Personal Weather Stations






























Interactive Weather Map New forecast layout! Learn more

10-Day Weather Forecast

Advertisements
Track Severe Weather on mobile